Time;durP1;ratioP1;P1;durP2;ratioP2;P2;SDS_P1;SDS_P2;PMS_P1;PMS_P2;Temp;Humidity;BMP_temperature;BMP_pressure;BME280_temperature;BME280_humidity;BME280_pressure;Samples;Min_cycle;Max_cycle;Signal;HPM_P1;HPM_P2
2022/03/01 00:02:28;;;;;;;18.35;8.98;;;2.00;1.00;;;;;;7359365;19;20018;-62
2022/03/01 00:04:58;;;;;;;14.73;7.85;;;1.90;1.00;;;;;;7359535;19;20074;-60
2022/03/01 00:07:32;;;;;;;16.60;8.70;;;2.00;1.00;;;;;;7364848;19;20019;-60
2022/03/01 00:10:02;;;;;;;16.17;8.35;;;1.80;1.00;;;;;;7361539;19;20017;-62
2022/03/01 00:12:33;;;;;;;16.08;8.20;;;1.80;1.00;;;;;;7379939;19;20025;-62
2022/03/01 00:15:03;;;;;;;16.35;8.50;;;1.90;1.00;;;;;;7354562;19;20010;-60
2022/03/01 00:17:33;;;;;;;17.95;8.85;;;1.80;1.00;;;;;;7364343;19;20014;-61
2022/03/01 00:20:03;;;;;;;18.42;9.13;;;1.70;1.00;;;;;;7362512;19;20006;-60
2022/03/01 00:22:37;;;;;;;16.35;9.63;;;1.70;1.00;;;;;;7359129;19;20027;-59
2022/03/01 00:25:08;;;;;;;15.93;8.70;;;1.60;1.00;;;;;;7357040;19;20085;-60
2022/03/01 00:27:38;;;;;;;18.40;8.68;;;1.60;1.00;;;;;;7385557;19;20021;-60
2022/03/01 00:30:09;;;;;;;17.02;8.77;;;1.60;1.00;;;;;;7363275;19;20018;-60
2022/03/01 00:32:40;;;;;;;16.70;8.73;;;1.50;1.00;;;;;;7358469;19;20486;-61
2022/03/01 00:35:10;;;;;;;19.23;8.90;;;1.50;1.00;;;;;;7355910;19;20345;-60
2022/03/01 00:37:43;;;;;;;23.08;9.73;;;1.60;1.00;;;;;;7363410;19;20069;-61
2022/03/01 00:40:14;;;;;;;19.13;8.90;;;1.50;1.00;;;;;;7362914;19;20106;-60
2022/03/01 00:42:44;;;;;;;16.58;8.20;;;1.50;1.00;;;;;;7379736;19;20016;-61
2022/03/01 00:45:15;;;;;;;16.70;9.07;;;1.50;1.00;;;;;;7355470;19;20086;-61
2022/03/01 00:47:45;;;;;;;17.25;9.30;;;1.30;1.00;;;;;;7362005;19;20010;-60
2022/03/01 00:50:18;;;;;;;16.90;8.85;;;1.20;1.00;;;;;;7363525;19;20530;-62
2022/03/01 00:52:50;;;;;;;16.35;8.55;;;1.20;1.00;;;;;;7360864;19;20013;-60
2022/03/01 00:55:20;;;;;;;14.85;9.18;;;1.20;1.00;;;;;;7356526;19;20074;-59
2022/03/01 00:57:50;;;;;;;16.42;8.85;;;1.10;1.00;;;;;;7361578;19;20085;-60
2022/03/01 01:00:20;;;;;;;15.70;9.07;;;1.10;1.00;;;;;;7383350;19;20102;-60
2022/03/01 01:02:51;;;;;;;15.77;8.63;;;1.10;1.00;;;;;;7359324;19;20077;-60
2022/03/01 01:05:22;;;;;;;20.80;9.50;;;1.10;1.00;;;;;;7357671;19;20121;-59
2022/03/01 01:07:55;;;;;;;17.42;9.00;;;1.10;1.00;;;;;;7360851;19;20298;-60
2022/03/01 01:10:25;;;;;;;17.10;8.23;;;1.10;1.00;;;;;;7361166;19;20018;-60
2022/03/01 01:12:55;;;;;;;15.07;8.73;;;1.00;1.00;;;;;;7360041;19;20401;-60
2022/03/01 01:15:25;;;;;;;17.95;9.35;;;1.00;1.00;;;;;;7377145;19;20083;-61
2022/03/01 01:17:55;;;;;;;18.17;9.77;;;1.00;1.00;;;;;;7359485;19;20002;-61
2022/03/01 01:20:25;;;;;;;19.48;9.90;;;1.00;1.00;;;;;;7358798;19;20017;-60
2022/03/01 01:22:57;;;;;;;20.92;10.20;;;0.90;1.00;;;;;;7357768;19;20022;-60
2022/03/01 01:25:30;;;;;;;17.95;9.45;;;0.80;1.00;;;;;;7356675;19;20010;-61
2022/03/01 01:28:03;;;;;;;19.40;9.60;;;0.80;1.00;;;;;;7368841;19;20430;-61
2022/03/01 01:30:37;;;;;;;14.77;8.33;;;0.60;1.00;;;;;;7387081;19;20022;-61
2022/03/01 01:33:07;;;;;;;18.60;9.82;;;0.70;1.00;;;;;;7364538;19;20486;-60
2022/03/01 01:35:38;;;;;;;16.98;9.55;;;0.70;1.00;;;;;;7363781;19;20031;-61
2022/03/01 01:38:11;;;;;;;17.30;9.52;;;0.60;1.00;;;;;;7368812;19;20017;-60
2022/03/01 01:40:41;;;;;;;19.70;10.13;;;0.50;1.00;;;;;;7366639;19;20082;-59
2022/03/01 01:43:11;;;;;;;17.27;9.73;;;0.50;1.00;;;;;;7361370;19;20021;-60
2022/03/01 01:45:41;;;;;;;16.30;9.13;;;0.40;1.00;;;;;;7383306;19;20017;-60
2022/03/01 01:48:11;;;;;;;19.50;9.68;;;0.40;1.00;;;;;;7368254;19;20017;-60
2022/03/01 01:50:41;;;;;;;17.90;9.27;;;0.30;1.00;;;;;;7368177;19;20015;-59
2022/03/01 01:53:13;;;;;;;18.50;9.60;;;0.40;1.00;;;;;;7363802;19;20014;-60
2022/03/01 01:55:43;;;;;;;16.73;9.07;;;0.40;1.00;;;;;;7360721;19;20025;-59
2022/03/01 01:58:13;;;;;;;20.40;10.25;;;0.50;1.00;;;;;;7367428;19;20315;-60
2022/03/01 02:00:43;;;;;;;19.45;10.45;;;0.50;1.00;;;;;;7389598;19;20017;-60
2022/03/01 02:03:15;;;;;;;21.20;10.18;;;0.50;1.00;;;;;;7362539;19;20014;-60
2022/03/01 02:05:45;;;;;;;17.83;9.30;;;0.40;1.00;;;;;;7359634;19;20010;-59
2022/03/01 02:08:17;;;;;;;22.40;10.25;;;0.50;1.00;;;;;;7365586;19;20844;-61
2022/03/01 02:10:47;;;;;;;18.38;10.30;;;0.40;1.00;;;;;;7368362;19;20070;-60
2022/03/01 02:13:17;;;;;;;19.20;9.40;;;0.40;1.00;;;;;;7366936;19;20078;-61
2022/03/01 02:15:47;;;;;;;22.90;9.63;;;0.30;1.00;;;;;;7360528;19;20024;-61
2022/03/01 02:18:18;;;;;;;18.75;9.55;;;0.40;1.00;;;;;;7387085;19;20025;-60
2022/03/01 02:20:50;;;;;;;18.95;10.27;;;0.30;1.00;;;;;;7366778;19;20010;-61
2022/03/01 02:23:20;;;;;;;17.65;9.65;;;0.30;1.00;;;;;;7366231;19;20086;-61
2022/03/01 02:25:50;;;;;;;19.88;10.45;;;0.30;1.00;;;;;;7360986;19;20010;-60
2022/03/01 02:28:20;;;;;;;16.90;9.70;;;0.30;1.00;;;;;;7365486;19;20041;-60
2022/03/01 02:30:50;;;;;;;19.98;9.93;;;0.30;1.00;;;;;;7367036;19;20794;-61
2022/03/01 02:33:20;;;;;;;18.60;10.20;;;0.30;1.00;;;;;;7386880;19;20097;-60
2022/03/01 02:35:52;;;;;;;18.58;10.73;;;0.20;1.00;;;;;;7362147;19;20002;-61
2022/03/01 02:38:22;;;;;;;16.65;9.52;;;0.20;1.00;;;;;;7362662;19;20344;-60
2022/03/01 02:40:52;;;;;;;14.88;8.77;;;0.10;1.00;;;;;;7366364;19;20027;-61
2022/03/01 02:43:22;;;;;;;16.67;9.60;;;0.20;1.00;;;;;;7364732;19;20011;-61
2022/03/01 02:45:52;;;;;;;18.23;10.23;;;0.10;1.00;;;;;;7360293;19;20027;-61
2022/03/01 02:48:22;;;;;;;19.60;9.73;;;0.10;1.00;;;;;;7385061;19;20516;-61
2022/03/01 02:50:54;;;;;;;17.92;10.25;;;0.00;1.00;;;;;;7364615;19;20077;-61
2022/03/01 02:53:25;;;;;;;18.33;10.15;;;0.10;1.00;;;;;;7364221;19;20017;-61
2022/03/01 02:55:54;;;;;;;17.55;9.45;;;0.10;1.00;;;;;;7361580;19;20017;-61
2022/03/01 02:58:24;;;;;;;19.83;9.73;;;0.10;1.00;;;;;;7363768;19;20021;-61
2022/03/01 03:00:54;;;;;;;18.20;10.15;;;0.10;1.00;;;;;;7364528;19;20007;-61
2022/03/01 03:03:24;;;;;;;17.27;9.88;;;0.10;1.00;;;;;;7384173;19;20047;-61
2022/03/01 03:05:57;;;;;;;18.45;9.68;;;0.00;1.00;;;;;;7361720;19;20085;-60
2022/03/01 03:08:27;;;;;;;20.38;10.18;;;-0.10;1.00;;;;;;7365125;19;20011;-61
2022/03/01 03:10:57;;;;;;;19.77;9.57;;;0.00;1.00;;;;;;7364624;19;20508;-61
2022/03/01 03:13:28;;;;;;;17.45;8.55;;;0.00;1.00;;;;;;7362346;19;20010;-60
2022/03/01 03:15:58;;;;;;;18.25;9.43;;;-0.10;1.00;;;;;;7361719;19;20092;-60
2022/03/01 03:18:28;;;;;;;16.35;9.23;;;-0.10;1.00;;;;;;7386314;19;20554;-61
2022/03/01 03:21:06;;;;;;;17.85;10.50;;;-0.10;1.00;;;;;;7363770;19;20017;-60
2022/03/01 03:23:36;;;;;;;21.77;11.60;;;-0.20;1.00;;;;;;7360804;19;20006;-61
2022/03/01 03:26:05;;;;;;;17.02;9.85;;;-0.20;1.00;;;;;;7360394;19;20093;-60
2022/03/01 03:28:37;;;;;;;18.90;10.10;;;-0.10;1.00;;;;;;7364941;19;20007;-60
2022/03/01 03:31:07;;;;;;;19.75;9.80;;;-0.10;1.00;;;;;;7364173;19;20014;-60
2022/03/01 03:33:37;;;;;;;16.45;9.55;;;-0.10;1.00;;;;;;7382488;19;20419;-60
2022/03/01 03:36:13;;;;;;;18.95;10.88;;;-0.10;1.00;;;;;;7359243;19;20088;-60
2022/03/01 03:38:43;;;;;;;20.23;10.43;;;-0.20;1.00;;;;;;7364119;19;20017;-61
2022/03/01 03:41:12;;;;;;;19.88;10.10;;;-0.30;1.00;;;;;;7366284;19;20002;-60
2022/03/01 03:43:43;;;;;;;18.13;9.63;;;-0.30;1.00;;;;;;7360651;19;20017;-60
2022/03/01 03:46:16;;;;;;;20.13;9.73;;;-0.40;1.00;;;;;;7361750;19;20041;-60
2022/03/01 03:48:46;;;;;;;19.98;10.15;;;-0.30;1.00;;;;;;7365006;19;20090;-60
2022/03/01 03:51:19;;;;;;;19.75;10.77;;;-0.30;1.00;;;;;;7386382;19;20018;-61
2022/03/01 03:53:49;;;;;;;18.67;10.20;;;-0.30;1.00;;;;;;7360534;19;20011;-61
2022/03/01 03:56:22;;;;;;;20.90;9.80;;;-0.30;1.00;;;;;;7360983;19;20553;-59
2022/03/01 03:58:55;;;;;;;19.13;9.52;;;-0.40;1.00;;;;;;7362879;19;20059;-60
2022/03/01 04:01:25;;;;;;;18.60;10.32;;;-0.40;1.00;;;;;;7364621;19;20014;-60
2022/03/01 04:03:58;;;;;;;16.15;9.43;;;-0.40;1.00;;;;;;7359764;19;20081;-59
2022/03/01 04:06:30;;;;;;;17.23;10.07;;;-0.60;1.00;;;;;;7381974;19;20483;-59
2022/03/01 04:09:01;;;;;;;18.23;10.02;;;-0.50;1.00;;;;;;7362403;19;20020;-60
2022/03/01 04:11:31;;;;;;;21.55;10.60;;;-0.50;1.00;;;;;;7362715;19;20074;-60
2022/03/01 04:14:03;;;;;;;16.98;9.48;;;-0.60;1.00;;;;;;7359216;19;20010;-59
2022/03/01 04:16:32;;;;;;;20.45;10.43;;;-0.60;1.00;;;;;;7362667;19;20081;-59
2022/03/01 04:19:04;;;;;;;18.20;9.57;;;-0.60;1.00;;;;;;7362207;19;20541;-59
2022/03/01 04:21:36;;;;;;;22.17;10.55;;;-0.50;1.00;;;;;;7383542;19;20401;-59
2022/03/01 04:24:07;;;;;;;20.08;9.55;;;-0.40;1.00;;;;;;7357035;19;20006;-59
2022/03/01 04:26:37;;;;;;;18.85;10.73;;;-0.50;1.00;;;;;;7361948;19;20089;-59
2022/03/01 04:29:07;;;;;;;17.75;9.60;;;-0.50;1.00;;;;;;7362315;19;20017;-59
2022/03/01 04:31:37;;;;;;;17.58;9.25;;;-0.60;1.00;;;;;;7362978;19;20010;-59
2022/03/01 04:34:08;;;;;;;16.27;9.52;;;-0.50;1.00;;;;;;7358051;19;20462;-59
2022/03/01 04:36:41;;;;;;;19.73;9.52;;;-0.50;1.00;;;;;;7383151;19;20351;-60
2022/03/01 04:39:11;;;;;;;21.05;9.95;;;-0.50;1.00;;;;;;7363022;19;20010;-60
2022/03/01 04:41:41;;;;;;;19.63;10.13;;;-0.50;1.00;;;;;;7361154;19;20037;-60
2022/03/01 04:44:11;;;;;;;19.95;9.32;;;-0.40;1.00;;;;;;7356623;19;20394;-59
2022/03/01 04:46:42;;;;;;;19.58;10.15;;;-0.40;1.00;;;;;;7362475;19;20078;-60
2022/03/01 04:49:13;;;;;;;16.85;9.55;;;-0.40;1.00;;;;;;7363070;19;20082;-60
2022/03/01 04:51:45;;;;;;;20.15;9.82;;;-0.40;1.00;;;;;;7382624;19;20014;-60
2022/03/01 04:54:15;;;;;;;18.58;9.65;;;-0.50;1.00;;;;;;7357926;19;20014;-60
2022/03/01 04:56:46;;;;;;;17.33;10.55;;;-0.50;1.00;;;;;;7360437;19;20010;-59
2022/03/01 04:59:16;;;;;;;17.25;9.93;;;-0.50;1.00;;;;;;7363385;19;20017;-59
2022/03/01 05:01:46;;;;;;;19.55;10.38;;;-0.50;1.00;;;;;;7364606;19;20381;-59
2022/03/01 05:04:16;;;;;;;21.45;10.48;;;-0.60;1.00;;;;;;7365079;19;20011;-60
2022/03/01 05:06:51;;;;;;;17.90;10.82;;;-0.50;1.00;;;;;;7367330;19;20508;-61
2022/03/01 05:09:21;;;;;;;16.80;10.75;;;-0.60;1.00;;;;;;7389771;19;20078;-60
2022/03/01 05:11:51;;;;;;;18.95;10.35;;;-0.50;1.00;;;;;;7367741;19;20006;-60
2022/03/01 05:14:22;;;;;;;19.33;11.00;;;-0.60;1.00;;;;;;7363179;19;20749;-60
2022/03/01 05:16:52;;;;;;;20.48;10.90;;;-0.70;1.00;;;;;;7365999;19;20377;-61
2022/03/01 05:19:22;;;;;;;15.35;9.15;;;-0.70;1.00;;;;;;7367860;19;20070;-60
2022/03/01 05:21:54;;;;;;;19.08;10.23;;;-0.70;1.00;;;;;;7368566;19;20028;-59
2022/03/01 05:24:24;;;;;;;19.73;10.57;;;-0.80;1.00;;;;;;7385027;19;20014;-59
2022/03/01 05:26:54;;;;;;;22.08;10.48;;;-0.90;1.00;;;;;;7364355;19;20022;-60
2022/03/01 05:29:24;;;;;;;16.10;9.60;;;-0.80;1.00;;;;;;7368166;19;20017;-60
2022/03/01 05:31:54;;;;;;;20.10;10.52;;;-0.90;1.00;;;;;;7366101;19;20489;-59
2022/03/01 05:34:24;;;;;;;21.88;10.45;;;-0.90;1.00;;;;;;7364760;19;20006;-59
2022/03/01 05:36:57;;;;;;;27.35;11.00;;;-1.00;1.00;;;;;;7363880;19;20093;-60
2022/03/01 05:39:27;;;;;;;21.05;10.98;;;-1.10;1.00;;;;;;7386796;19;20090;-61
2022/03/01 05:41:56;;;;;;;18.58;10.25;;;-1.00;1.00;;;;;;7364988;19;20002;-59
2022/03/01 05:44:26;;;;;;;25.25;10.57;;;-1.00;1.00;;;;;;7366750;19;20058;-60
2022/03/01 05:46:57;;;;;;;21.02;11.10;;;-1.00;1.00;;;;;;7365613;19;20046;-60
2022/03/01 05:49:27;;;;;;;17.95;9.88;;;-1.10;1.00;;;;;;7366067;19;20006;-59
2022/03/01 05:51:59;;;;;;;22.40;10.57;;;-1.10;1.00;;;;;;7364022;19;20082;-59
2022/03/01 05:54:29;;;;;;;19.30;11.57;;;-1.10;1.00;;;;;;7387727;19;20017;-60
2022/03/01 05:56:59;;;;;;;21.25;10.50;;;-1.10;1.00;;;;;;7364309;19;20023;-59
2022/03/01 05:59:29;;;;;;;25.63;10.70;;;-1.10;1.00;;;;;;7366914;19;20023;-60
2022/03/01 06:01:59;;;;;;;19.52;11.13;;;-1.00;1.00;;;;;;7362792;19;20030;-59
2022/03/01 06:04:29;;;;;;;20.35;11.55;;;-0.90;1.00;;;;;;7364303;19;20014;-60
2022/03/01 06:07:01;;;;;;;24.73;12.20;;;-0.80;1.00;;;;;;7367192;19;20018;-60
2022/03/01 06:09:31;;;;;;;19.55;10.90;;;-0.90;1.00;;;;;;7386930;19;20030;-61
2022/03/01 06:12:01;;;;;;;22.67;12.27;;;-0.80;1.00;;;;;;7361276;19;20010;-61
2022/03/01 06:14:31;;;;;;;24.02;12.00;;;-0.90;1.00;;;;;;7361207;19;20110;-61
2022/03/01 06:17:00;;;;;;;20.67;11.18;;;-0.90;1.00;;;;;;7366027;19;20094;-61
2022/03/01 06:19:30;;;;;;;21.30;10.85;;;-0.90;1.00;;;;;;7365861;19;20015;-62
2022/03/01 06:22:03;;;;;;;21.00;11.52;;;-0.90;1.00;;;;;;7362255;19;20367;-60
2022/03/01 06:24:33;;;;;;;20.98;11.43;;;-1.10;1.00;;;;;;7384196;19;20014;-60
2022/03/01 06:27:04;;;;;;;20.58;11.25;;;-1.10;1.00;;;;;;7364786;19;20017;-60
2022/03/01 06:29:35;;;;;;;20.58;11.27;;;-1.10;1.00;;;;;;7367070;19;20101;-60
2022/03/01 06:32:06;;;;;;;23.05;11.02;;;-0.90;1.00;;;;;;7362932;19;20066;-60
2022/03/01 06:34:36;;;;;;;22.17;11.20;;;-0.80;1.00;;;;;;7362047;19;20006;-62
2022/03/01 06:37:30;;;;;;;21.38;11.10;;;-0.80;1.00;;;;;;7363261;19;20007;-59
2022/03/01 06:39:59;;;;;;;20.08;10.95;;;-0.70;1.00;;;;;;7365219;19;20052;-60
2022/03/01 06:42:29;;;;;;;29.38;11.30;;;-0.70;1.00;;;;;;7385426;19;20362;-60
2022/03/01 06:45:00;;;;;;;19.13;10.50;;;-0.60;1.00;;;;;;7360517;19;20014;-60
2022/03/01 06:47:29;;;;;;;21.08;10.80;;;-0.60;1.00;;;;;;7362382;19;20474;-61
2022/03/01 06:50:00;;;;;;;19.02;10.10;;;-0.60;1.00;;;;;;7362897;19;20716;-61
2022/03/01 06:52:34;;;;;;;20.00;10.68;;;-0.50;1.00;;;;;;7362872;19;20038;-61
2022/03/01 06:55:05;;;;;;;;;;;-0.40;1.00;;;;;;7362998;19;20072;-61
2022/03/01 06:57:36;;;;;;;19.23;10.48;;;-0.40;1.00;;;;;;7385298;19;19919;-60
2022/03/01 07:00:08;;;;;;;18.55;10.90;;;-0.30;1.00;;;;;;7363536;19;20761;-60
2022/03/01 07:02:38;;;;;;;18.63;10.38;;;-0.30;1.00;;;;;;7362190;19;20010;-60
2022/03/01 07:05:10;;;;;;;19.63;10.68;;;-0.20;1.00;;;;;;7361862;19;20014;-60
2022/03/01 07:07:43;;;;;;;18.45;10.50;;;-0.20;1.00;;;;;;7362952;19;20018;-60
2022/03/01 07:10:15;;;;;;;20.70;10.52;;;-0.10;1.00;;;;;;7365209;19;20007;-61
2022/03/01 07:12:47;;;;;;;18.92;9.57;;;-0.10;1.00;;;;;;7379332;19;20331;-61
2022/03/01 07:15:17;;;;;;;18.08;9.25;;;-0.10;1.00;;;;;;7382513;19;20066;-59
2022/03/01 07:17:48;;;;;;;17.48;9.70;;;0.00;1.00;;;;;;7364637;19;20362;-62
2022/03/01 07:20:18;;;;;;;17.45;9.43;;;0.00;1.00;;;;;;7365341;19;20479;-61
2022/03/01 07:22:51;;;;;;;24.85;10.73;;;0.10;1.00;;;;;;7360992;19;20018;-60
2022/03/01 07:25:20;;;;;;;19.80;10.20;;;0.10;1.00;;;;;;7358545;19;20014;-60
2022/03/01 07:27:52;;;;;;;16.58;9.50;;;0.20;1.00;;;;;;7363926;19;20651;-61
2022/03/01 07:30:24;;;;;;;18.35;10.07;;;0.10;1.00;;;;;;7384370;19;20131;-60
2022/03/01 07:32:56;;;;;;;21.15;9.90;;;0.20;1.00;;;;;;7359732;19;20014;-60
2022/03/01 07:35:27;;;;;;;20.65;10.35;;;0.30;1.00;;;;;;7358443;19;20010;-60
2022/03/01 07:38:00;;;;;;;20.33;9.95;;;0.40;1.00;;;;;;7363836;19;20046;-60
2022/03/01 07:40:30;;;;;;;21.77;11.35;;;0.50;1.00;;;;;;7364497;19;20620;-60
2022/03/01 07:43:00;;;;;;;19.75;10.13;;;0.50;1.00;;;;;;7359550;19;20025;-60
2022/03/01 07:45:30;;;;;;;16.88;9.45;;;0.60;1.00;;;;;;7378710;19;20074;-61
2022/03/01 07:48:01;;;;;;;20.92;9.80;;;0.70;1.00;;;;;;7362504;19;20046;-59
2022/03/01 07:50:34;;;;;;;16.40;8.82;;;0.70;1.00;;;;;;7364637;19;20134;-60
2022/03/01 07:53:07;;;;;;;21.20;9.90;;;0.60;1.00;;;;;;7361587;19;20006;-60
2022/03/01 07:55:37;;;;;;;24.98;13.23;;;0.80;1.00;;;;;;7356401;19;20659;-60
2022/03/01 07:58:07;;;;;;;15.02;9.50;;;0.70;1.00;;;;;;7363070;19;20018;-59
2022/03/01 08:00:37;;;;;;;14.43;8.95;;;0.80;1.00;;;;;;7384499;19;20512;-60
2022/03/01 08:03:07;;;;;;;17.27;9.32;;;0.90;1.00;;;;;;7358412;19;20037;-59
2022/03/01 08:05:37;;;;;;;19.63;9.63;;;1.20;1.00;;;;;;7358506;19;20029;-61
2022/03/01 08:08:09;;;;;;;19.52;10.52;;;1.00;1.00;;;;;;7362223;19;20474;-59
2022/03/01 08:10:40;;;;;;;16.30;8.90;;;1.10;1.00;;;;;;7363633;19;20421;-60
2022/03/01 08:13:30;;;;;;;15.93;8.68;;;1.20;1.00;;;;;;7360858;19;20021;-60
2022/03/01 08:16:00;;;;;;;17.40;9.25;;;1.30;1.00;;;;;;7356967;19;20844;-60
2022/03/01 08:18:30;;;;;;;18.48;9.18;;;1.40;1.00;;;;;;7382029;19;20454;-61
2022/03/01 08:21:00;;;;;;;15.75;8.88;;;1.40;1.00;;;;;;7361352;19;20014;-61
2022/03/01 08:23:32;;;;;;;14.32;8.20;;;1.50;1.00;;;;;;7360013;19;20468;-60
2022/03/01 08:26:04;;;;;;;17.92;8.38;;;1.50;1.00;;;;;;7357358;19;20020;-60
2022/03/01 08:28:34;;;;;;;14.75;8.43;;;1.50;1.00;;;;;;7361488;19;20006;-59
2022/03/01 08:31:04;;;;;;;16.55;8.35;;;1.60;1.00;;;;;;7361823;19;20014;-60
2022/03/01 08:33:34;;;;;;;14.93;8.00;;;1.70;1.00;;;;;;7381166;19;20056;-61
2022/03/01 08:36:04;;;;;;;15.15;8.60;;;1.80;1.00;;;;;;7356202;19;20013;-61
2022/03/01 08:38:36;;;;;;;12.98;8.02;;;1.80;1.00;;;;;;7361787;19;20010;-60
2022/03/01 08:41:11;;;;;;;21.70;8.25;;;1.80;1.00;;;;;;7361768;19;20003;-59
2022/03/01 08:43:41;;;;;;;16.30;8.57;;;1.80;1.00;;;;;;7360315;19;20013;-60
2022/03/01 08:46:12;;;;;;;14.40;7.70;;;1.90;1.00;;;;;;7359777;19;20419;-60
2022/03/01 08:48:44;;;;;;;16.27;8.60;;;1.90;1.00;;;;;;7383356;19;20018;-59
2022/03/01 08:51:15;;;;;;;15.98;7.85;;;2.00;1.00;;;;;;7359983;19;20542;-60
2022/03/01 08:53:47;;;;;;;18.10;7.53;;;2.20;1.00;;;;;;7357607;19;20020;-61
2022/03/01 08:56:17;;;;;;;18.00;8.52;;;2.20;1.00;;;;;;7359304;19;20018;-60
2022/03/01 08:58:47;;;;;;;14.52;8.52;;;2.30;1.00;;;;;;7361851;19;20009;-60
2022/03/01 09:01:17;;;;;;;16.60;8.05;;;2.40;1.00;;;;;;7360098;19;20452;-60
2022/03/01 09:03:47;;;;;;;16.05;8.32;;;2.50;1.00;;;;;;7356105;19;20352;-60
2022/03/01 09:06:17;;;;;;;13.88;7.90;;;2.60;1.00;;;;;;7378983;19;20035;-60
2022/03/01 09:08:50;;;;;;;14.23;8.60;;;2.60;1.00;;;;;;7360478;19;20021;-61
2022/03/01 09:11:20;;;;;;;22.63;8.13;;;2.80;1.00;;;;;;7361563;19;20714;-61
2022/03/01 09:13:50;;;;;;;13.95;7.60;;;2.80;1.00;;;;;;7355737;19;20007;-61
2022/03/01 09:16:20;;;;;;;18.60;8.35;;;2.90;1.00;;;;;;7358038;19;20014;-61
2022/03/01 09:18:50;;;;;;;15.18;8.73;;;2.80;1.00;;;;;;7358772;19;20015;-60
2022/03/01 09:21:20;;;;;;;12.13;6.95;;;2.70;1.00;;;;;;7381332;19;20010;-60
2022/03/01 09:23:52;;;;;;;15.88;7.90;;;2.70;1.00;;;;;;7355155;19;20401;-60
2022/03/01 09:26:22;;;;;;;15.35;7.72;;;2.50;1.00;;;;;;7358377;19;20021;-60
2022/03/01 09:28:52;;;;;;;19.27;8.73;;;2.90;1.00;;;;;;7359433;19;20029;-61
2022/03/01 09:31:22;;;;;;;12.85;7.65;;;3.20;1.00;;;;;;7360859;19;20070;-61
2022/03/01 09:33:52;;;;;;;17.00;8.02;;;3.30;1.00;;;;;;7357437;19;20011;-59
2022/03/01 09:36:22;;;;;;;15.88;8.70;;;3.40;1.00;;;;;;7378861;19;20028;-60
2022/03/01 09:38:55;;;;;;;13.68;6.95;;;3.60;1.00;;;;;;7358418;19;20099;-60
2022/03/01 09:41:25;;;;;;;15.38;7.65;;;3.50;1.00;;;;;;7359685;19;20014;-61
2022/03/01 09:43:58;;;;;;;14.77;7.57;;;3.70;1.00;;;;;;7356455;19;20006;-60
2022/03/01 09:46:28;;;;;;;14.90;7.53;;;3.70;1.00;;;;;;7360089;19;20502;-60
2022/03/01 09:48:58;;;;;;;14.95;7.70;;;3.50;1.00;;;;;;7364730;19;20495;-61
2022/03/01 09:51:29;;;;;;;14.32;7.55;;;3.60;1.00;;;;;;7388142;19;20462;-61
2022/03/01 09:54:01;;;;;;;18.40;7.78;;;3.60;1.00;;;;;;7360642;19;20011;-60
2022/03/01 09:56:32;;;;;;;12.25;7.25;;;3.60;1.00;;;;;;7367058;19;20018;-61
2022/03/01 09:59:03;;;;;;;14.15;7.95;;;3.90;1.00;;;;;;7365777;19;20007;-59
2022/03/01 10:01:36;;;;;;;17.95;7.50;;;3.80;1.00;;;;;;7362421;19;20002;-60
2022/03/01 10:04:10;;;;;;;15.07;8.00;;;4.10;1.00;;;;;;7357987;19;20003;-61
2022/03/01 10:06:44;;;;;;;14.25;7.90;;;3.90;1.00;;;;;;7384892;19;20011;-60
2022/03/01 10:09:18;;;;;;;13.77;7.35;;;4.10;1.00;;;;;;7364479;19;20470;-60
2022/03/01 10:11:49;;;;;;;;;;;4.20;1.00;;;;;;7363534;19;20031;-60
2022/03/01 10:14:29;;;;;;;13.45;7.20;;;4.00;1.00;;;;;;7358377;19;20534;-61
2022/03/01 10:17:00;;;;;;;15.07;7.30;;;4.10;1.00;;;;;;7362723;19;20010;-61
2022/03/01 10:19:30;;;;;;;15.23;7.57;;;4.20;1.00;;;;;;7364347;19;20036;-60
2022/03/01 10:22:03;;;;;;;12.75;7.97;;;4.00;1.00;;;;;;7359892;19;20074;-61
2022/03/01 10:24:35;;;;;;;12.55;7.22;;;4.00;1.00;;;;;;7380994;19;20018;-62
2022/03/01 10:27:06;;;;;;;12.10;7.25;;;4.30;1.00;;;;;;7360628;19;20074;-62
2022/03/01 10:29:47;;;;;;;15.05;6.97;;;4.40;1.00;;;;;;7364363;19;20061;-61
2022/03/01 10:32:17;;;;;;;12.30;7.35;;;4.70;1.00;;;;;;7361299;19;20447;-61
2022/03/01 10:34:59;;;;;;;15.13;7.95;;;4.80;1.00;;;;;;7361269;19;20485;-60
2022/03/01 10:37:30;;;;;;;13.50;8.00;;;4.60;1.00;;;;;;7361169;19;20007;-61
2022/03/01 10:40:20;;;;;;;13.90;7.55;;;4.50;1.00;;;;;;7360386;19;20090;-61
2022/03/01 10:43:04;;;;;;;15.55;8.73;;;4.90;1.00;;;;;;7359442;19;20010;-61
2022/03/01 10:45:36;;;;;;;11.15;7.10;;;5.40;1.00;;;;;;7380764;19;20026;-61
2022/03/01 10:48:08;;;;;;;14.13;8.68;;;5.10;1.00;;;;;;7363457;19;20018;-61
2022/03/01 10:50:39;;;;;;;12.43;7.07;;;5.20;1.00;;;;;;7364781;19;20090;-61
2022/03/01 10:53:11;;;;;;;14.65;7.47;;;5.50;1.00;;;;;;7359402;19;20031;-60
2022/03/01 10:55:43;;;;;;;11.68;7.00;;;5.50;1.00;;;;;;7359707;19;20102;-60
2022/03/01 10:58:15;;;;;;;12.05;6.95;;;5.30;1.00;;;;;;7363986;19;20017;-61
2022/03/01 11:00:45;;;;;;;15.13;7.40;;;5.00;1.00;;;;;;7377411;19;20010;-61
2022/03/01 11:03:16;;;;;;;10.32;6.43;;;5.20;1.00;;;;;;7380672;19;20482;-61
2022/03/01 11:05:47;;;;;;;12.23;6.55;;;5.60;1.00;;;;;;7357613;19;20491;-61
2022/03/01 11:08:35;;;;;;;14.88;7.78;;;5.20;1.00;;;;;;7362607;19;20010;-61
2022/03/01 11:11:09;;;;;;;13.18;7.20;;;5.50;1.00;;;;;;7363453;19;20018;-60
2022/03/01 11:13:41;;;;;;;15.25;7.70;;;5.70;1.00;;;;;;7360103;19;20074;-61
2022/03/01 11:16:39;;;;;;;14.70;7.75;;;5.80;1.00;;;;;;7358822;19;20011;-61
2022/03/01 11:19:40;;;;;;;11.90;7.03;;;5.80;1.00;;;;;;7362992;19;20011;-59
2022/03/01 11:22:21;;;;;;;15.50;7.13;;;5.50;1.00;;;;;;7359522;19;20006;-59
2022/03/01 11:24:51;;;;;;;13.75;7.60;;;5.80;1.00;;;;;;7360137;19;20031;-61
2022/03/01 11:27:28;;;;;;;11.30;6.75;;;5.80;1.00;;;;;;7384861;19;20082;-59
2022/03/01 11:30:10;;;;;;;13.93;7.38;;;6.00;1.00;;;;;;7362303;19;20097;-61
2022/03/01 11:32:42;;;;;;;16.50;7.20;;;5.70;1.00;;;;;;7359130;19;20015;-62
2022/03/01 11:35:19;;;;;;;10.73;6.82;;;5.50;1.00;;;;;;7357345;19;20027;-62
2022/03/01 11:38:02;;;;;;;11.48;6.85;;;5.80;1.00;;;;;;7363366;19;20007;-60
2022/03/01 11:40:42;;;;;;;12.48;6.80;;;6.00;1.00;;;;;;7364337;19;20013;-61
2022/03/01 11:43:17;;;;;;;11.80;6.57;;;6.10;1.00;;;;;;7359783;19;20813;-61
2022/03/01 11:45:49;;;;;;;9.00;6.13;;;6.10;1.00;;;;;;7355936;19;20003;-61
2022/03/01 11:48:22;;;;;;;12.27;7.57;;;6.00;1.00;;;;;;7382464;19;20366;-60
2022/03/01 11:50:57;;;;;;;11.68;6.18;;;5.80;1.00;;;;;;7362865;19;20959;-62
2022/03/01 11:53:31;;;;;;;12.27;6.53;;;6.20;1.00;;;;;;7359769;19;20010;-60
2022/03/01 11:56:03;;;;;;;10.38;6.70;;;6.20;1.00;;;;;;7357339;19;20014;-60
2022/03/01 11:58:37;;;;;;;11.18;6.75;;;6.40;1.00;;;;;;7361978;19;20082;-60
2022/03/01 12:01:08;;;;;;;10.77;6.53;;;6.80;1.00;;;;;;7362258;19;20018;-61
2022/03/01 12:03:39;;;;;;;9.20;6.75;;;6.80;1.00;;;;;;7381013;19;20086;-62
2022/03/01 12:06:10;;;;;;;12.23;6.43;;;6.60;1.00;;;;;;7356985;19;20035;-60
2022/03/01 12:08:41;;;;;;;10.40;6.45;;;6.50;1.00;;;;;;7360594;19;20006;-61
2022/03/01 12:11:12;;;;;;;11.20;6.07;;;6.30;1.00;;;;;;7363064;19;20030;-61
2022/03/01 12:13:46;;;;;;;9.80;5.60;;;6.30;1.00;;;;;;7355834;19;20086;-61
2022/03/01 12:16:29;;;;;;;9.30;6.03;;;6.60;1.00;;;;;;7359179;19;20010;-63
2022/03/01 12:19:08;;;;;;;11.43;7.05;;;6.60;1.00;;;;;;7362156;19;20510;-61
2022/03/01 12:21:40;;;;;;;14.20;7.38;;;6.50;1.00;;;;;;7382511;19;20011;-61
2022/03/01 12:24:11;;;;;;;11.32;7.07;;;6.60;1.00;;;;;;7284897;19;20034;-60
2022/03/01 12:26:53;;;;;;;10.57;6.70;;;6.60;1.00;;;;;;7339796;19;20074;-60
2022/03/01 12:29:30;;;;;;;13.00;7.28;;;6.50;1.00;;;;;;7362918;19;20010;-59
2022/03/01 12:32:02;;;;;;;11.57;7.40;;;6.60;1.00;;;;;;7361912;19;20028;-59
2022/03/01 12:34:33;;;;;;;9.68;6.80;;;6.60;1.00;;;;;;7358405;19;20007;-60
2022/03/01 12:37:07;;;;;;;12.77;6.85;;;6.70;1.00;;;;;;7360519;19;20089;-60
2022/03/01 12:39:37;;;;;;;10.75;7.00;;;6.60;1.00;;;;;;7382504;19;20409;-60
2022/03/01 12:42:09;;;;;;;12.70;6.97;;;6.60;1.00;;;;;;7360332;19;20032;-60
2022/03/01 12:44:42;;;;;;;10.07;6.47;;;6.50;1.00;;;;;;7359149;19;20010;-60
2022/03/01 12:47:12;;;;;;;12.07;7.00;;;7.00;1.00;;;;;;7358422;19;20010;-60
2022/03/01 12:49:42;;;;;;;10.30;6.15;;;7.20;1.00;;;;;;7361743;19;20477;-60
2022/03/01 12:52:20;;;;;;;10.70;6.72;;;6.80;1.00;;;;;;7358722;19;20591;-60
2022/03/01 12:54:51;;;;;;;11.73;6.22;;;6.80;1.00;;;;;;7357409;19;20411;-60
2022/03/01 12:57:21;;;;;;;10.95;6.72;;;6.90;1.00;;;;;;7380584;19;20014;-59
2022/03/01 12:59:53;;;;;;;11.43;6.07;;;7.00;1.00;;;;;;7359274;19;20529;-60
2022/03/01 13:02:23;;;;;;;12.57;6.75;;;6.80;1.00;;;;;;7356604;19;20090;-59
2022/03/01 13:04:57;;;;;;;10.82;6.50;;;6.90;1.00;;;;;;7357897;19;20011;-60
2022/03/01 13:07:31;;;;;;;13.98;7.15;;;6.80;1.00;;;;;;7359162;19;20401;-60
2022/03/01 13:10:03;;;;;;;10.93;6.85;;;6.70;1.00;;;;;;7358947;19;20350;-60
2022/03/01 13:12:33;;;;;;;10.93;6.20;;;6.70;1.00;;;;;;7378060;19;20017;-60
2022/03/01 13:15:06;;;;;;;10.60;6.70;;;6.70;1.00;;;;;;7356523;19;20422;-61
2022/03/01 13:17:36;;;;;;;9.55;6.68;;;7.00;1.00;;;;;;7362926;19;20014;-60